Time;durP1;ratioP1;P1;durP2;ratioP2;P2;SDS_P1;SDS_P2;PMS_P1;PMS_P2;Temp;Humidity;BMP_temperature;BMP_pressure;BME280_temperature;BME280_humidity;BME280_pressure;Samples;Min_cycle;Max_cycle;Signal;HPM_P1;HPM_P2
2023/01/13 00:00:45;;;;;;;21.10;5.90;;;;;;;-1.65;100.00;102004.80;105815;1294;58425;-85
2023/01/13 00:03:11;;;;;;;24.30;6.80;;;;;;;-1.66;100.00;102001.13;105983;1294;58355;-84
2023/01/13 00:05:37;;;;;;;30.90;6.90;;;;;;;-1.67;100.00;102004.88;106275;1289;58425;-85
2023/01/13 00:08:05;;;;;;;29.00;7.60;;;;;;;-1.64;100.00;102000.90;106284;1289;58345;-85
2023/01/13 00:10:34;;;;;;;38.60;7.60;;;;;;;-1.62;100.00;101998.08;106288;1289;58360;-85
2023/01/13 00:13:02;;;;;;;35.70;6.90;;;;;;;-1.62;100.00;101995.13;106266;1289;74486;-85
2023/01/13 00:15:27;;;;;;;40.40;6.40;;;;;;;-1.61;100.00;101999.45;106369;1288;73478;-85
2023/01/13 00:17:53;;;;;;;26.40;7.00;;;;;;;-1.64;100.00;101999.54;106369;1289;58708;-85
2023/01/13 00:20:18;;;;;;;31.90;6.60;;;;;;;-1.63;100.00;101991.19;106230;1289;59206;-85
2023/01/13 00:22:44;;;;;;;25.30;7.10;;;;;;;-1.62;100.00;101991.27;106262;1289;58273;-85
2023/01/13 00:25:10;;;;;;;25.50;6.70;;;;;;;-1.62;100.00;101991.42;106351;1289;59159;-85
2023/01/13 00:27:35;;;;;;;19.00;5.70;;;;;;;-1.61;100.00;101991.81;106264;1291;60919;-85
2023/01/13 00:30:01;;;;;;;23.80;6.20;;;;;;;-1.61;100.00;101991.29;106410;1289;58367;-84
2023/01/13 00:32:27;;;;;;;16.30;5.50;;;;;;;-1.61;100.00;101992.92;106308;1288;58291;-84
2023/01/13 00:34:53;;;;;;;32.20;6.70;;;;;;;-1.61;100.00;101987.98;106898;1283;58319;-85
2023/01/13 00:37:19;;;;;;;21.00;5.40;;;;;;;-1.61;100.00;101991.88;106911;1283;58954;-86
2023/01/13 00:39:44;;;;;;;24.00;6.90;;;;;;;-1.62;100.00;101988.42;106489;1283;58228;-85
2023/01/13 00:44:54;;;;;;;20.80;5.60;;;;;;;-1.59;100.00;101987.80;106925;1285;72236;-85
2023/01/13 00:47:20;;;;;;;36.50;6.60;;;;;;;-1.60;100.00;101986.08;106598;1285;58318;-85
2023/01/13 00:49:46;;;;;;;27.50;5.90;;;;;;;-1.60;100.00;101984.73;106791;1284;58573;-85
2023/01/13 00:52:11;;;;;;;24.40;5.90;;;;;;;-1.61;100.00;101983.39;106439;1288;58535;-85
2023/01/13 00:54:37;;;;;;;30.90;5.70;;;;;;;-1.63;100.00;101979.89;106467;1288;58386;-85
2023/01/13 00:57:03;;;;;;;31.20;7.30;;;;;;;-1.66;100.00;101975.62;106424;1287;73356;-85
2023/01/13 00:59:29;;;;;;;33.80;8.80;;;;;;;-1.68;100.00;101975.43;106408;1289;58268;-85
2023/01/13 01:01:55;;;;;;;32.60;8.40;;;;;;;-1.73;100.00;101973.94;106271;1288;58441;-84
2023/01/13 01:04:21;;;;;;;37.90;9.50;;;;;;;-1.77;100.00;101974.16;106437;1293;58315;-84
2023/01/13 01:06:47;;;;;;;35.90;9.80;;;;;;;-1.83;100.00;101971.04;106445;1288;58345;-85
2023/01/13 01:09:14;;;;;;;50.20;10.00;;;;;;;-1.85;100.00;101972.57;106525;1287;58658;-85
2023/01/13 01:11:40;;;;;;;48.10;10.80;;;;;;;-1.87;100.00;101975.42;106150;1291;58624;-86
2023/01/13 01:14:05;;;;;;;45.30;9.20;;;;;;;-1.87;100.00;101978.45;106289;1290;58248;-85
2023/01/13 01:16:32;;;;;;;40.90;10.70;;;;;;;-1.88;100.00;101979.89;106133;1290;58309;-85
2023/01/13 01:18:59;;;;;;;44.10;8.80;;;;;;;-1.88;100.00;101978.34;106233;1291;71063;-85
2023/01/13 01:21:26;;;;;;;30.40;8.00;;;;;;;-1.88;100.00;101979.95;106210;1291;62579;-85
2023/01/13 01:23:53;;;;;;;26.70;6.90;;;;;;;-1.86;100.00;101985.95;106357;1286;59883;-85
2023/01/13 01:26:21;;;;;;;28.60;6.30;;;;;;;-1.86;100.00;101985.41;106290;1290;58291;-85
2023/01/13 01:28:47;;;;;;;27.20;6.20;;;;;;;-1.82;100.00;101981.73;106249;1292;74385;-85
2023/01/13 01:31:24;;;;;;;24.50;5.50;;;;;;;-1.79;100.00;101979.11;106205;1292;58346;-85
2023/01/13 01:33:51;;;;;;;25.50;6.10;;;;;;;-1.72;100.00;101982.85;106269;1291;62898;-85
2023/01/13 01:36:19;;;;;;;23.60;5.20;;;;;;;-1.72;100.00;101984.94;106196;1291;60036;-85
2023/01/13 01:38:46;;;;;;;25.80;5.30;;;;;;;-1.72;100.00;101979.64;106306;1291;74744;-86
2023/01/13 01:41:18;;;;;;;31.00;5.30;;;;;;;-1.72;100.00;101979.84;106099;1290;58215;-84
2023/01/13 01:43:58;;;;;;;17.80;4.30;;;;;;;-1.74;100.00;101976.35;106456;1290;73533;-85
2023/01/13 01:46:39;;;;;;;21.90;5.20;;;;;;;-1.70;100.00;101981.02;106478;1286;62750;-85
2023/01/13 01:49:25;;;;;;;23.50;5.00;;;;;;;-1.74;100.00;101980.73;106534;1286;60479;-85
2023/01/13 01:51:59;;;;;;;33.60;5.20;;;;;;;-1.74;100.00;101980.02;106432;1286;73821;-86
2023/01/13 01:54:39;;;;;;;24.50;5.10;;;;;;;-1.70;100.00;101975.83;106540;1286;73045;-85
2023/01/13 01:57:08;;;;;;;29.90;6.00;;;;;;;-1.70;100.00;101973.19;106704;1283;73521;-85
2023/01/13 01:59:35;;;;;;;27.00;5.80;;;;;;;-1.70;100.00;101971.70;107023;1283;61574;-85
2023/01/13 02:02:01;;;;;;;24.60;6.00;;;;;;;-1.68;100.00;101972.92;106799;1286;59236;-85
2023/01/13 02:04:35;;;;;;;29.50;5.60;;;;;;;-1.69;100.00;101972.52;107067;1285;58243;-85
2023/01/13 02:07:01;;;;;;;33.80;5.50;;;;;;;-1.68;100.00;101971.02;106947;1284;73384;-85
2023/01/13 02:09:27;;;;;;;21.40;5.30;;;;;;;-1.68;100.00;101972.29;106395;1288;58367;-85
2023/01/13 02:14:38;;;;;;;30.00;5.60;;;;;;;-1.65;100.00;101970.16;106314;1288;60212;-85
2023/01/13 02:17:15;;;;;;;32.10;5.90;;;;;;;-1.67;100.00;101972.52;106295;1288;75343;-85
2023/01/13 02:20:13;;;;;;;29.80;5.20;;;;;;;-1.66;100.00;101973.45;106359;1288;74576;-86
2023/01/13 02:22:50;;;;;;;39.80;5.30;;;;;;;-1.65;100.00;101974.42;106411;1288;73506;-85
2023/01/13 02:25:51;;;;;;;35.70;6.40;;;;;;;-1.63;100.00;101973.59;106410;1288;61802;-85
2023/01/13 02:28:19;;;;;;;31.50;6.10;;;;;;;-1.66;100.00;101977.05;106193;1291;60826;-84
2023/01/13 02:33:48;;;;;;;30.90;6.00;;;;;;;-1.63;100.00;101979.92;106143;1292;73405;-85
2023/01/13 02:36:28;;;;;;;32.20;5.90;;;;;;;-1.66;100.00;101981.10;106167;1292;73787;-85
2023/01/13 02:38:59;;;;;;;43.10;7.10;;;;;;;-1.69;100.00;101978.66;106171;1291;61917;-84
2023/01/13 02:44:17;;;;;;;43.80;6.30;;;;;;;-1.79;100.00;101980.05;106246;1292;73644;-85
2023/01/13 02:46:51;;;;;;;38.00;6.70;;;;;;;-1.80;100.00;101979.37;106096;1292;74414;-86
2023/01/13 02:49:35;;;;;;;37.10;5.20;;;;;;;-1.78;100.00;101981.54;106199;1291;73179;-85
2023/01/13 02:52:26;;;;;;;26.10;5.40;;;;;;;-1.75;100.00;101986.66;106213;1291;62737;-85
2023/01/13 02:54:56;;;;;;;26.20;5.30;;;;;;;-1.76;100.00;101984.84;105804;1296;61091;-85
2023/01/13 02:57:25;;;;;;;51.70;5.90;;;;;;;-1.76;100.00;101987.31;105714;1301;74706;-85
2023/01/13 02:59:54;;;;;;;32.20;5.80;;;;;;;-1.77;100.00;101985.98;105719;1296;74290;-85
2023/01/13 03:02:21;;;;;;;34.60;6.80;;;;;;;-1.77;100.00;101981.61;105818;1296;72386;-86
2023/01/13 03:04:53;;;;;;;36.70;6.50;;;;;;;-1.77;100.00;101982.14;105804;1293;62478;-85
2023/01/13 03:07:36;;;;;;;48.10;8.00;;;;;;;-1.76;100.00;101983.23;106011;1298;61115;-85
2023/01/13 03:10:02;;;;;;;37.10;6.80;;;;;;;-1.77;100.00;101983.56;106186;1291;73634;-84
2023/01/13 03:12:30;;;;;;;37.40;6.50;;;;;;;-1.79;100.00;101985.84;106219;1291;58305;-84
2023/01/13 03:15:05;;;;;;;25.60;6.60;;;;;;;-1.80;100.00;101984.54;106220;1291;73388;-85
2023/01/13 03:17:42;;;;;;;38.80;5.90;;;;;;;-1.80;100.00;101985.34;106152;1292;62872;-85
2023/01/13 03:20:13;;;;;;;27.00;5.70;;;;;;;-1.78;100.00;101980.11;106228;1291;60136;-85
2023/01/13 03:23:12;;;;;;;35.30;6.40;;;;;;;-1.80;100.00;101979.45;106101;1291;73552;-86
2023/01/13 03:25:48;;;;;;;35.80;6.00;;;;;;;-1.77;100.00;101981.95;105967;1291;72597;-86
2023/01/13 03:28:24;;;;;;;36.20;6.10;;;;;;;-1.78;100.00;101982.56;106213;1291;72600;-85
2023/01/13 03:30:57;;;;;;;36.30;6.80;;;;;;;-1.78;100.00;101983.45;106081;1291;62992;-85
2023/01/13 03:33:28;;;;;;;39.60;7.00;;;;;;;-1.80;100.00;101982.35;106874;1286;60051;-85
2023/01/13 03:36:01;;;;;;;48.90;6.60;;;;;;;-1.77;100.00;101983.54;107064;1283;74752;-85
2023/01/13 03:38:53;;;;;;;35.40;6.30;;;;;;;-1.77;100.00;101988.80;106489;1283;74469;-85
2023/01/13 03:41:27;;;;;;;33.10;5.50;;;;;;;-1.77;100.00;101987.03;106930;1285;73320;-85
2023/01/13 03:46:58;;;;;;;58.30;9.30;;;;;;;-1.72;100.00;101989.74;106884;1285;59058;-85
2023/01/13 03:49:28;;;;;;;70.30;13.40;;;;;;;-1.76;100.00;101983.02;106909;1285;72615;-85
2023/01/13 03:52:02;;;;;;;45.20;9.00;;;;;;;-1.74;100.00;101985.56;107017;1285;74398;-85
2023/01/13 03:54:32;;;;;;;45.90;9.90;;;;;;;-1.71;100.00;101983.95;106863;1283;72539;-85
2023/01/13 03:57:08;;;;;;;49.20;8.90;;;;;;;-1.65;100.00;101983.77;106906;1285;61764;-85
2023/01/13 03:59:40;;;;;;;49.50;7.80;;;;;;;-1.67;100.00;101980.41;106924;1285;60142;-85
2023/01/13 04:02:08;;;;;;;41.10;7.40;;;;;;;-1.64;100.00;101980.21;107086;1283;73591;-85
2023/01/13 04:04:43;;;;;;;48.80;7.00;;;;;;;-1.66;100.00;101979.85;107059;1285;74100;-85
2023/01/13 04:07:47;;;;;;;39.00;6.60;;;;;;;-1.63;100.00;101980.39;107051;1284;72683;-86
2023/01/13 04:10:19;;;;;;;44.80;7.20;;;;;;;-1.64;100.00;101976.51;106472;1288;62604;-85
2023/01/13 04:13:05;;;;;;;31.20;7.30;;;;;;;-1.64;100.00;101974.86;106449;1289;59253;-85
2023/01/13 04:15:38;;;;;;;31.80;7.00;;;;;;;-1.66;100.00;101971.86;106510;1288;74783;-86
2023/01/13 04:18:11;;;;;;;29.10;6.80;;;;;;;-1.66;100.00;101976.83;106558;1288;74369;-85
2023/01/13 04:20:38;;;;;;;45.80;7.90;;;;;;;-1.66;100.00;101980.91;106452;1289;73490;-85
2023/01/13 04:23:04;;;;;;;38.50;6.70;;;;;;;-1.67;100.00;101982.52;106527;1288;61843;-85
2023/01/13 04:25:30;;;;;;;39.20;8.40;;;;;;;-1.67;100.00;101983.64;106257;1287;214433;-86
2023/01/13 04:27:56;;;;;;;59.10;8.30;;;;;;;-1.66;100.00;101983.30;106246;1288;58333;-85
2023/01/13 04:30:21;;;;;;;43.00;7.30;;;;;;;-1.66;100.00;101983.83;106420;1289;58489;-85
2023/01/13 04:32:47;;;;;;;32.90;8.50;;;;;;;-1.62;100.00;101987.67;106222;1289;58517;-85
2023/01/13 04:35:13;;;;;;;44.50;10.20;;;;;;;-1.62;100.00;101987.51;106475;1289;59387;-84
2023/01/13 04:37:38;;;;;;;54.20;10.40;;;;;;;-1.66;100.00;101982.46;106481;1288;74571;-86
2023/01/13 04:40:04;;;;;;;53.90;11.10;;;;;;;-1.61;100.00;101989.75;106600;1288;58422;-85
2023/01/13 04:42:30;;;;;;;49.80;10.40;;;;;;;-1.62;100.00;101989.79;106392;1289;58543;-85
2023/01/13 04:44:55;;;;;;;45.20;10.60;;;;;;;-1.63;100.00;101987.80;106436;1288;58716;-85
2023/01/13 04:47:21;;;;;;;53.00;11.20;;;;;;;-1.59;100.00;101986.52;106464;1289;58857;-85
2023/01/13 04:49:47;;;;;;;42.90;9.40;;;;;;;-1.54;100.00;101984.36;106484;1289;58394;-85
2023/01/13 04:52:12;;;;;;;45.20;9.80;;;;;;;-1.54;100.00;101985.92;106432;1288;72483;-85
2023/01/13 04:54:38;;;;;;;46.40;10.40;;;;;;;-1.53;100.00;101986.14;106540;1288;58250;-85
2023/01/13 04:57:03;;;;;;;55.30;11.10;;;;;;;-1.55;100.00;101983.79;106256;1289;58427;-85
2023/01/13 04:59:29;;;;;;;49.70;10.90;;;;;;;-1.56;100.00;101980.87;106295;1291;58659;-85
2023/01/13 05:01:54;;;;;;;40.60;10.40;;;;;;;-1.55;100.00;101983.22;106321;1290;58336;-85
2023/01/13 05:04:20;;;;;;;51.20;10.90;;;;;;;-1.54;100.00;101984.13;106074;1290;62812;-85
2023/01/13 05:06:45;;;;;;;42.10;9.10;;;;;;;-1.50;100.00;101986.41;106208;1290;58481;-86
2023/01/13 05:09:12;;;;;;;48.80;10.30;;;;;;;-1.45;100.00;101993.00;106181;1292;58239;-85
2023/01/13 05:17:08;;;;;;;55.20;10.40;;;;;;;-1.44;100.00;101993.73;106299;1291;60655;-85
2023/01/13 05:19:37;;;;;;;47.60;11.10;;;;;;;-1.44;100.00;101996.20;106266;1291;58279;-85
2023/01/13 05:27:32;;;;;;;45.90;10.00;;;;;;;-1.47;100.00;101999.22;106617;1283;71390;-85
2023/01/13 05:29:58;;;;;;;49.60;8.50;;;;;;;-1.49;100.00;101998.67;106712;1283;58258;-85
2023/01/13 05:32:24;;;;;;;38.70;9.40;;;;;;;-1.53;100.00;101997.13;107054;1283;58318;-86
2023/01/13 05:34:50;;;;;;;45.70;10.00;;;;;;;-1.52;100.00;101998.58;106917;1283;58278;-86
2023/01/13 05:37:15;;;;;;;52.60;10.00;;;;;;;-1.50;100.00;101997.17;106592;1283;58543;-84
2023/01/13 05:45:11;;;;;;;52.30;10.30;;;;;;;-1.50;100.00;101994.55;107030;1286;58991;-85
2023/01/13 05:47:37;;;;;;;44.40;10.60;;;;;;;-1.46;100.00;101996.99;106750;1286;58616;-85
2023/01/13 05:50:03;;;;;;;42.70;10.40;;;;;;;-1.45;100.00;101989.23;106823;1286;58331;-85
2023/01/13 05:52:28;;;;;;;46.10;10.50;;;;;;;-1.46;100.00;101993.40;106785;1284;58463;-85
2023/01/13 05:54:54;;;;;;;41.70;9.50;;;;;;;-1.47;100.00;101991.04;106896;1285;58278;-86
2023/01/13 05:57:19;;;;;;;40.70;10.10;;;;;;;-1.47;100.00;101992.98;106916;1283;59012;-85
2023/01/13 05:59:45;;;;;;;27.30;9.40;;;;;;;-1.48;100.00;101996.14;106901;1285;58253;-86
2023/01/13 06:02:10;;;;;;;38.40;9.00;;;;;;;-1.48;100.00;101992.41;106753;1285;58378;-86
2023/01/13 06:04:36;;;;;;;46.50;10.50;;;;;;;-1.47;100.00;101988.11;106447;1286;58671;-85
2023/01/13 06:07:01;;;;;;;45.10;10.20;;;;;;;-1.46;100.00;101989.69;106794;1283;58621;-85
2023/01/13 06:09:27;;;;;;;47.90;8.90;;;;;;;-1.41;100.00;101997.91;106564;1288;58292;-85
2023/01/13 06:11:52;;;;;;;38.30;8.30;;;;;;;-1.42;100.00;101997.05;106576;1285;58340;-85
2023/01/13 06:14:18;;;;;;;36.30;8.40;;;;;;;-1.40;100.00;101997.98;106741;1285;58254;-85
2023/01/13 06:16:46;;;;;;;38.00;8.60;;;;;;;-1.39;100.00;102002.60;106718;1285;58513;-85
2023/01/13 06:19:12;;;;;;;45.40;8.80;;;;;;;-1.39;100.00;102002.64;106733;1285;73556;-86
2023/01/13 06:21:43;;;;;;;57.60;10.20;;;;;;;-1.36;100.00;102003.39;106580;1285;58354;-85
2023/01/13 06:24:09;;;;;;;40.50;8.60;;;;;;;-1.32;100.00;102005.83;106560;1285;73418;-86
2023/01/13 06:26:38;;;;;;;52.90;8.50;;;;;;;-1.29;100.00;102006.79;106587;1285;58594;-85
2023/01/13 06:29:05;;;;;;;28.00;7.10;;;;;;;-1.27;100.00;102007.61;106569;1286;58758;-85
2023/01/13 06:31:36;;;;;;;36.60;8.80;;;;;;;-1.28;100.00;102005.52;106575;1285;58638;-85
2023/01/13 06:34:10;;;;;;;34.80;8.30;;;;;;;-1.25;100.00;102005.55;106416;1288;73916;-85
2023/01/13 06:36:40;;;;;;;38.80;7.80;;;;;;;-1.20;100.00;102011.77;106421;1287;72528;-84
2023/01/13 06:39:09;;;;;;;33.60;8.20;;;;;;;-1.18;100.00;102013.10;106379;1288;60610;-85
2023/01/13 06:44:20;;;;;;;26.40;6.60;;;;;;;-1.16;100.00;102003.61;106339;1288;73744;-85
2023/01/13 06:46:46;;;;;;;29.30;6.90;;;;;;;-1.15;100.00;102000.73;106308;1289;73874;-85
2023/01/13 06:49:12;;;;;;;29.00;6.50;;;;;;;-1.07;100.00;102003.81;106320;1287;58662;-85
2023/01/13 06:51:38;;;;;;;29.30;7.40;;;;;;;-1.04;100.00;102001.91;106384;1289;59075;-85
2023/01/13 06:54:04;;;;;;;27.90;7.30;;;;;;;-0.98;100.00;102005.58;106192;1287;58315;-86
2023/01/13 06:56:29;;;;;;;37.50;8.30;;;;;;;-0.96;100.00;102008.17;106453;1289;58518;-85
2023/01/13 06:58:55;;;;;;;26.60;7.40;;;;;;;-0.94;100.00;102012.98;106230;1289;58560;-86
2023/01/13 07:01:21;;;;;;;30.60;6.10;;;;;;;-0.91;100.00;102011.79;106141;1289;58425;-85
2023/01/13 07:03:47;;;;;;;25.90;5.80;;;;;;;-0.88;100.00;102012.17;106318;1289;59039;-85
2023/01/13 07:06:12;;;;;;;28.40;6.20;;;;;;;-0.82;100.00;102011.61;106407;1289;58695;-85
2023/01/13 07:08:38;;;;;;;22.70;6.40;;;;;;;-0.78;100.00;102016.98;106408;1288;58717;-86
2023/01/13 07:11:04;;;;;;;42.60;9.70;;;;;;;-0.73;100.00;102016.73;106581;1286;58680;-86
2023/01/13 11:20:31;;;;;;;37.50;8.00;;;;;;;0.42;100.00;101916.20;103211;1289;613920;-82
2023/01/13 11:23:29;;;;;;;27.30;7.70;;;;;;;0.54;100.00;101915.36;101672;1292;2364461;-82
2023/01/13 11:27:33;;;;;;;34.70;8.50;;;;;;;0.54;100.00;101917.31;103085;1289;614370;-81
2023/01/13 11:30:29;;;;;;;34.60;8.40;;;;;;;0.49;100.00;101915.95;103029;1292;62449;-80
2023/01/13 11:33:28;;;;;;;;;;;;;;;;;;;;;
2023/01/13 11:47:13;;;;;;;36.30;10.00;;;;;;;0.84;100.00;101919.06;103704;1282;615352;-81
2023/01/13 11:49:47;;;;;;;34.80;8.20;;;;;;;0.80;100.00;101917.38;103639;1288;202565;-80
2023/01/13 11:52:33;;;;;;;41.20;9.70;;;;;;;0.71;100.00;101914.42;107130;1279;61741;-81
2023/01/13 11:55:34;;;;;;;41.50;9.00;;;;;;;0.69;100.00;101912.59;107271;1280;71713;-81
2023/01/13 11:58:34;;;;;;;35.50;8.00;;;;;;;0.67;100.00;101914.71;107123;1282;75844;-81
2023/01/13 12:01:42;;;;;;;22.80;8.20;;;;;;;0.63;100.00;101918.70;106598;1285;73673;-81
2023/01/13 12:04:48;;;;;;;27.50;8.10;;;;;;;0.60;100.00;101922.01;106382;1288;61608;-81
2023/01/13 12:07:27;;;;;;;27.70;8.50;;;;;;;0.58;100.00;101918.06;105682;1297;61327;-81
2023/01/13 12:10:24;;;;;;;;;;;;;;;;;;;;;
2023/01/13 12:13:09;;;;;;;24.60;6.90;;;;;;;0.58;100.00;101922.56;105529;1297;75157;-81
2023/01/13 12:16:04;;;;;;;23.90;7.30;;;;;;;0.59;100.00;101922.99;105582;1297;71789;-80
2023/01/13 12:18:56;;;;;;;45.40;8.00;;;;;;;0.60;100.00;101925.34;105671;1297;60549;-81
2023/01/13 12:21:27;;;;;;;30.80;8.40;;;;;;;0.61;100.00;101926.30;105314;1302;59588;-81
2023/01/13 12:24:21;;;;;;;26.50;9.30;;;;;;;0.58;100.00;101928.57;105270;1299;74088;-81
2023/01/13 12:27:20;;;;;;;34.70;8.40;;;;;;;0.53;100.00;101924.24;105368;1302;73064;-81
2023/01/13 12:29:58;;;;;;;26.50;7.30;;;;;;;0.59;100.00;101929.14;105111;1300;73642;-81
2023/01/13 12:32:42;;;;;;;30.90;7.30;;;;;;;0.56;100.00;101927.99;105526;1296;61583;-81
2023/01/13 12:35:29;;;;;;;29.70;8.80;;;;;;;0.61;100.00;101933.66;105817;1294;62629;-81
2023/01/13 12:38:21;;;;;;;25.40;8.60;;;;;;;0.65;100.00;101934.20;105764;1294;74416;-81
2023/01/13 12:41:23;;;;;;;29.50;8.40;;;;;;;0.69;100.00;101940.15;105980;1294;75678;-80
2023/01/13 12:46:54;;;;;;;27.70;8.10;;;;;;;0.69;100.00;101943.46;105797;1297;59895;-81
2023/01/13 12:49:35;;;;;;;41.70;8.30;;;;;;;0.62;100.00;101939.43;105726;1297;61316;-81
2023/01/13 12:52:06;;;;;;;24.90;7.50;;;;;;;0.57;100.00;101934.55;105816;1291;74085;-81
2023/01/13 12:54:46;;;;;;;29.90;7.10;;;;;;;0.57;100.00;101938.35;106148;1292;73325;-81
2023/01/13 12:57:30;;;;;;;35.40;8.00;;;;;;;0.55;100.00;101936.30;105937;1291;72011;-81
2023/01/13 13:00:04;;;;;;;26.60;8.50;;;;;;;0.54;100.00;101938.00;106026;1291;59978;-81
2023/01/13 13:02:50;;;;;;;26.30;9.20;;;;;;;0.59;100.00;101937.29;106193;1290;59574;-81
2023/01/13 13:05:31;;;;;;;30.20;8.90;;;;;;;0.63;100.00;101938.98;106006;1293;74083;-82
2023/01/13 13:08:34;;;;;;;33.30;9.30;;;;;;;0.63;100.00;101937.70;106267;1289;74456;-81
2023/01/13 13:11:06;;;;;;;31.50;8.80;;;;;;;0.62;100.00;101937.67;106183;1290;73390;-81
2023/01/13 13:14:02;;;;;;;;;;;;;;;;;;;;;
2023/01/13 13:16:30;;;;;;;31.20;8.30;;;;;;;0.60;100.00;101939.62;106224;1289;62078;-81
2023/01/13 13:19:21;;;;;;;29.40;8.30;;;;;;;0.57;100.00;101937.31;106308;1289;73786;-81
2023/01/13 13:22:17;;;;;;;25.00;8.60;;;;;;;0.47;100.00;101933.73;106279;1289;75202;-82
2023/01/13 13:24:58;;;;;;;38.90;10.00;;;;;;;0.42;100.00;101935.00;106291;1289;74340;-81
2023/01/13 13:27:39;;;;;;;40.90;10.40;;;;;;;0.44;100.00;101940.09;106226;1290;61262;-81
2023/01/13 13:30:21;;;;;;;25.10;9.70;;;;;;;0.37;100.00;101942.55;106181;1292;60727;-82
2023/01/13 13:33:28;;;;;;;39.20;9.30;;;;;;;0.35;100.00;101941.90;106222;1292;73758;-82
2023/01/13 13:36:09;;;;;;;36.10;9.90;;;;;;;0.34;100.00;101941.30;106297;1291;74147;-81
2023/01/13 13:47:33;;;;;;;45.90;12.40;;;;;;;0.31;100.00;101947.09;105963;1294;72996;-82
2023/01/13 13:50:14;;;;;;;45.60;14.10;;;;;;;0.31;100.00;101948.18;105740;1296;74729;-82
2023/01/13 13:53:07;;;;;;;55.10;16.20;;;;;;;0.25;100.00;101943.45;105499;1300;72886;-82
2023/01/13 13:55:36;;;;;;;49.50;16.80;;;;;;;0.24;100.00;101941.97;105401;1300;62109;-82
2023/01/13 13:58:19;;;;;;;61.00;15.10;;;;;;;0.21;100.00;101943.36;105332;1302;59284;-81
2023/01/13 14:00:47;;;;;;;48.10;14.50;;;;;;;0.15;100.00;101945.59;105718;1296;72974;-81
2023/01/13 14:03:21;;;;;;;45.30;12.10;;;;;;;0.16;100.00;101948.77;105482;1299;74402;-81
2023/01/13 14:05:58;;;;;;;33.70;11.30;;;;;;;0.12;100.00;101947.59;105542;1299;73115;-82
2023/01/13 14:08:26;;;;;;;40.40;12.00;;;;;;;0.11;100.00;101948.61;105563;1299;61083;-82
2023/01/13 14:10:54;;;;;;;36.00;12.50;;;;;;;0.10;100.00;101946.25;105662;1296;61730;-82
2023/01/13 14:13:21;;;;;;;58.30;17.60;;;;;;;0.12;100.00;101949.55;105645;1296;72823;-81
2023/01/13 14:15:55;;;;;;;45.40;13.20;;;;;;;0.07;100.00;101952.54;105989;1292;74293;-82
2023/01/13 14:18:21;;;;;;;;;;;;;;;0.07;100.00;101955.71;105979;1293;71401;-81
2023/01/13 14:20:57;;;;;;;53.50;15.00;;;;;;;0.02;100.00;101960.52;106013;1293;58322;-82
2023/01/13 14:23:28;;;;;;;47.50;15.00;;;;;;;0.01;100.00;101956.94;106011;1287;61700;-82
2023/01/13 14:25:59;;;;;;;52.50;14.90;;;;;;;0.00;100.00;101958.73;106236;1287;72985;-82
2023/01/13 14:28:39;;;;;;;61.90;14.50;;;;;;;-0.02;100.00;101960.93;106339;1284;74509;-82
2023/01/13 14:31:08;;;;;;;71.00;16.30;;;;;;;-0.02;100.00;101958.35;106560;1284;72453;-82
2023/01/13 14:34:09;;;;;;;51.10;14.60;;;;;;;0.00;100.00;101957.14;106768;1285;62030;-82
2023/01/13 16:10:43;;;;;;;48.50;15.70;;;;;;;-0.36;100.00;101976.52;109274;1259;73749;31
2023/01/13 16:13:11;;;;;;;50.40;15.10;;;;;;;-0.37;100.00;101976.65;106720;1267;74581;-82
2023/01/13 16:15:46;;;;;;;54.80;16.30;;;;;;;-0.42;100.00;101974.29;106161;1267;72977;-82
2023/01/13 16:18:18;;;;;;;55.30;15.70;;;;;;;-0.43;100.00;101973.52;105809;1271;60540;-82
2023/01/13 16:20:44;;;;;;;57.00;15.90;;;;;;;-0.45;100.00;101978.49;106170;1263;60561;-82
2023/01/13 16:23:11;;;;;;;77.80;17.60;;;;;;;-0.47;100.00;101974.98;105976;1268;60510;-83
2023/01/13 20:04:12;;;;;;;89.20;20.00;;;;;;;-2.19;100.00;101950.63;104025;1280;616341;-82
2023/01/13 20:06:43;;;;;;;74.70;19.10;;;;;;;-2.07;100.00;101948.11;103773;1287;62207;-82
2023/01/13 20:09:09;;;;;;;64.20;17.60;;;;;;;-1.97;100.00;101950.02;104375;1279;60701;-82
2023/01/13 20:11:35;;;;;;;81.80;19.20;;;;;;;-1.90;100.00;101943.83;103989;1279;60504;-82
2023/01/13 20:14:01;;;;;;;89.00;18.30;;;;;;;-1.82;100.00;101948.90;103984;1286;60408;-82
2023/01/13 20:16:28;;;;;;;76.00;18.10;;;;;;;-1.73;100.00;101947.52;104249;1279;232467;-82
2023/01/13 20:18:55;;;;;;;69.60;16.70;;;;;;;-1.67;100.00;101945.97;104181;1285;60418;-82
2023/01/13 20:21:22;;;;;;;60.50;17.10;;;;;;;-1.64;100.00;101947.40;104217;1284;60761;-82
2023/01/13 20:23:52;;;;;;;90.40;17.50;;;;;;;-1.61;100.00;101942.89;104732;1277;60711;-81
2023/01/13 20:26:18;;;;;;;74.30;17.30;;;;;;;-1.59;100.00;101940.36;103797;1288;71297;-81
2023/01/13 20:28:46;;;;;;;63.70;16.00;;;;;;;-1.53;100.00;101933.66;104625;1276;72486;-80
2023/01/13 20:31:12;;;;;;;79.10;15.40;;;;;;;-1.54;100.00;101933.38;104779;1276;61742;-80
2023/01/13 20:33:39;;;;;;;70.80;14.30;;;;;;;-1.51;100.00;101928.92;104734;1279;60385;-81
2023/01/13 20:36:05;;;;;;;56.40;14.30;;;;;;;-1.52;100.00;101930.23;104712;1277;60421;-81
2023/01/13 20:38:41;;;;;;;73.60;14.60;;;;;;;-1.52;100.00;101930.77;104706;1279;60258;-81
2023/01/13 20:43:51;;;;;;;56.00;15.60;;;;;;;-1.50;100.00;101930.36;104619;1276;60688;-80
2023/01/13 20:46:18;;;;;;;71.40;15.20;;;;;;;-1.50;100.00;101928.92;104154;1277;60402;-80
2023/01/13 20:48:43;;;;;;;86.80;16.90;;;;;;;-1.47;100.00;101928.48;104449;1277;60340;-81
2023/01/13 20:51:09;;;;;;;84.50;17.30;;;;;;;-1.45;100.00;101927.11;104741;1279;60354;-81
2023/01/13 20:53:35;;;;;;;73.40;16.90;;;;;;;-1.44;100.00;101926.92;104680;1276;60392;-81
2023/01/13 20:56:05;;;;;;;76.70;16.30;;;;;;;-1.41;100.00;101926.34;104060;1285;60441;-81
2023/01/13 20:58:31;;;;;;;61.50;16.80;;;;;;;-1.40;100.00;101923.24;104679;1276;61699;-81
2023/01/13 21:01:00;;;;;;;60.60;15.10;;;;;;;-1.36;100.00;101927.11;104308;1277;60537;-81
2023/01/13 21:03:26;;;;;;;78.50;15.50;;;;;;;-1.37;100.00;101928.43;104157;1285;74118;-81
2023/01/13 21:05:51;;;;;;;63.90;14.30;;;;;;;-1.34;100.00;101926.88;104187;1277;60425;-82
2023/01/13 21:08:17;;;;;;;60.00;13.50;;;;;;;-1.32;100.00;101925.14;104498;1277;61960;-81
2023/01/13 21:10:42;;;;;;;55.30;13.50;;;;;;;-1.36;100.00;101921.63;104227;1276;60485;-82
2023/01/13 21:15:54;;;;;;;58.50;14.00;;;;;;;-1.42;100.00;101910.60;104346;1276;74162;-82
2023/01/13 21:21:12;;;;;;;55.40;13.60;;;;;;;-1.48;100.00;101912.20;104659;1276;60575;-81
2023/01/13 21:23:42;;;;;;;64.10;13.40;;;;;;;-1.47;100.00;101917.07;104839;1276;73470;-82
2023/01/13 21:26:09;;;;;;;50.50;13.40;;;;;;;-1.47;100.00;101917.81;104671;1276;73188;-82
2023/01/13 21:28:35;;;;;;;56.70;13.40;;;;;;;-1.48;100.00;101916.30;104724;1276;72526;-82
2023/01/13 21:31:06;;;;;;;48.30;14.30;;;;;;;-1.48;100.00;101912.91;104697;1277;60398;-81
2023/01/13 21:33:32;;;;;;;57.70;14.00;;;;;;;-1.47;100.00;101915.98;104862;1275;60405;-82
2023/01/13 21:36:06;;;;;;;61.10;14.10;;;;;;;-1.49;100.00;101910.92;104300;1277;60450;-82
2023/01/13 21:38:32;;;;;;;55.70;12.00;;;;;;;-1.51;100.00;101908.45;104411;1276;74862;-82
2023/01/13 21:49:59;;;;;;;52.50;13.70;;;;;;;-1.49;100.00;101912.49;103355;1294;61983;-82
2023/01/13 21:52:25;;;;;;;55.80;13.80;;;;;;;-1.47;100.00;101910.90;103258;1292;60393;-82
2023/01/13 21:57:35;;;;;;;54.40;14.70;;;;;;;-1.48;100.00;101915.02;103341;1288;222197;-83
2023/01/13 22:04:11;;;;;;;69.30;15.40;;;;;;;-1.45;100.00;101914.78;102938;1290;600453;-82
2023/01/13 22:06:16;;;;;;;52.00;14.20;;;;;;;-1.44;100.00;101913.41;103498;1290;61944;-82
2023/01/13 22:08:42;;;;;;;62.00;15.90;;;;;;;-1.48;100.00;101913.94;103528;1294;60444;-82